Time;durP1;ratioP1;P1;durP2;ratioP2;P2;SDS_P1;SDS_P2;PMS_P1;PMS_P2;Temp;Humidity;BMP_temperature;BMP_pressure;BME280_temperature;BME280_humidity;BME280_pressure;Samples;Min_cycle;Max_cycle;Signal;HPM_P1;HPM_P2
2022/10/19 00:01:16;;;;;;;48.90;23.03;;;12.70;99.90;;;;;;5088106;28;20525;-48
2022/10/19 00:03:43;;;;;;;42.77;25.73;;;12.70;99.90;;;;;;5089580;28;20412;-51
2022/10/19 00:06:33;;;;;;;42.60;24.10;;;12.70;99.90;;;;;;5083968;28;20880;-53
2022/10/19 00:09:13;;;;;;;43.77;26.20;;;12.80;99.90;;;;;;5089621;28;20640;-52
2022/10/19 00:11:42;;;;;;;40.53;23.83;;;12.80;99.90;;;;;;5089280;28;20443;-48
2022/10/19 00:14:10;;;;;;;40.33;23.17;;;12.70;99.90;;;;;;5088011;28;20465;-47
2022/10/19 00:16:37;;;;;;;51.00;25.20;;;12.70;99.90;;;;;;5086675;28;20866;-47
2022/10/19 00:19:06;;;;;;;39.80;23.67;;;12.60;99.90;;;;;;5088345;28;20819;-49
2022/10/19 00:21:32;;;;;;;39.93;24.80;;;12.60;99.90;;;;;;5089013;28;20412;-51
2022/10/19 00:23:57;;;;;;;42.10;24.43;;;12.50;99.90;;;;;;5088231;28;20845;-49
2022/10/19 00:26:24;;;;;;;45.93;23.27;;;12.40;99.90;;;;;;5087652;28;20691;-47
2022/10/19 00:28:53;;;;;;;46.20;25.77;;;12.30;99.90;;;;;;5089086;28;20192;-51
2022/10/19 00:31:19;;;;;;;46.30;24.43;;;12.30;99.90;;;;;;5088093;28;21048;-53
2022/10/19 00:33:45;;;;;;;45.00;24.37;;;12.20;99.90;;;;;;5088254;28;20456;-48
2022/10/19 00:36:18;;;;;;;48.23;24.60;;;12.10;99.90;;;;;;5087906;28;20231;-50
2022/10/19 00:38:44;;;;;;;49.87;25.07;;;12.10;99.90;;;;;;5087291;28;20492;-53
2022/10/19 00:41:10;;;;;;;39.07;24.40;;;12.00;99.90;;;;;;5088793;28;20415;-49
2022/10/19 00:44:00;;;;;;;51.37;24.20;;;12.00;99.90;;;;;;5087425;28;20525;-50
2022/10/19 00:46:28;;;;;;;47.33;24.77;;;11.90;99.90;;;;;;5087019;28;20295;-48
2022/10/19 00:48:58;;;;;;;48.47;23.67;;;11.80;99.90;;;;;;5088336;28;20419;-48
2022/10/19 00:51:27;;;;;;;52.80;26.23;;;11.80;99.90;;;;;;5088702;28;20414;-48
2022/10/19 00:53:53;;;;;;;44.20;23.43;;;11.70;99.90;;;;;;5087178;28;20435;-47
2022/10/19 00:56:19;;;;;;;52.07;25.47;;;11.60;99.90;;;;;;5087512;28;20628;-49
2022/10/19 00:58:45;;;;;;;46.13;23.30;;;11.60;99.90;;;;;;5086827;28;21126;-50
2022/10/19 01:01:15;;;;;;;44.77;23.00;;;11.50;99.90;;;;;;5087631;28;20188;-47
2022/10/19 01:03:41;;;;;;;43.73;24.90;;;11.50;99.90;;;;;;5088538;28;20415;-50
2022/10/19 01:06:07;;;;;;;43.63;24.90;;;11.40;99.90;;;;;;5066132;28;20481;-52
2022/10/19 01:08:33;;;;;;;49.40;26.17;;;11.40;99.90;;;;;;5087302;28;20219;-51
2022/10/19 01:11:34;;;;;;;43.57;25.20;;;11.30;99.90;;;;;;5086467;28;20887;-50
2022/10/19 01:14:13;;;;;;;47.53;24.30;;;11.30;99.90;;;;;;5088625;28;20183;-50
2022/10/19 01:16:47;;;;;;;48.77;26.17;;;11.20;99.90;;;;;;5086570;28;20779;-49
2022/10/19 01:19:45;;;;;;;48.77;24.87;;;11.20;99.90;;;;;;5087300;28;20485;-51
2022/10/19 01:22:22;;;;;;;51.13;24.40;;;11.20;99.90;;;;;;5031156;28;20463;-48
2022/10/19 01:25:16;;;;;;;48.50;24.07;;;11.10;99.90;;;;;;5074489;28;20454;-49
2022/10/19 01:28:31;;;;;;;54.47;24.77;;;11.10;99.90;;;;;;5084457;28;20441;-52
2022/10/19 01:31:15;;;;;;;47.40;23.67;;;11.10;99.90;;;;;;5066560;28;20434;-50
2022/10/19 01:33:58;;;;;;;48.17;22.00;;;11.00;99.90;;;;;;5090323;28;20456;-48
2022/10/19 01:37:21;;;;;;;42.10;22.93;;;11.00;99.90;;;;;;5091126;28;20445;-51
2022/10/19 01:40:03;;;;;;;40.47;22.03;;;10.90;99.90;;;;;;5020128;28;20897;-48
2022/10/19 01:42:58;;;;;;;42.47;22.13;;;10.90;99.90;;;;;;5029345;28;20433;-49
2022/10/19 01:45:53;;;;;;;45.00;23.10;;;10.80;99.90;;;;;;5076374;28;20927;-52
2022/10/19 01:48:27;;;;;;;41.73;22.10;;;10.70;99.90;;;;;;5038064;28;20447;-50
2022/10/19 01:51:03;;;;;;;53.77;24.13;;;10.70;99.90;;;;;;5092188;28;20544;-49
2022/10/19 01:53:34;;;;;;;57.73;24.10;;;10.60;99.90;;;;;;5097443;28;20584;-48
2022/10/19 01:56:02;;;;;;;47.67;23.30;;;10.60;99.90;;;;;;5091963;28;20407;-48
2022/10/19 01:58:31;;;;;;;40.87;21.40;;;10.50;99.90;;;;;;5088044;28;21069;-50
2022/10/19 02:01:02;;;;;;;49.60;23.23;;;10.50;99.90;;;;;;5090951;28;20591;-51
2022/10/19 02:03:28;;;;;;;43.47;22.60;;;10.50;99.90;;;;;;5091947;28;20771;-53
2022/10/19 02:05:55;;;;;;;39.67;21.50;;;10.40;99.90;;;;;;5089815;28;20482;-51
2022/10/19 02:08:30;;;;;;;50.23;24.40;;;10.50;99.90;;;;;;5089660;28;20975;-47
2022/10/19 02:10:58;;;;;;;47.57;23.73;;;10.40;99.90;;;;;;5090023;28;20848;-52
2022/10/19 02:13:25;;;;;;;55.43;25.20;;;10.40;99.90;;;;;;5091131;28;20434;-51
2022/10/19 02:15:53;;;;;;;51.33;24.37;;;10.40;99.90;;;;;;5090984;28;20902;-51
2022/10/19 02:18:25;;;;;;;49.93;23.33;;;10.50;99.90;;;;;;5089785;28;20453;-49
2022/10/19 02:20:51;;;;;;;40.70;19.60;;;10.60;99.90;;;;;;5091036;28;20525;-52
2022/10/19 02:23:21;;;;;;;48.20;23.53;;;10.60;99.90;;;;;;5090795;28;20501;-49
2022/10/19 02:25:47;;;;;;;48.90;22.30;;;10.70;99.90;;;;;;5088648;28;20243;-50
2022/10/19 02:28:13;;;;;;;53.80;23.10;;;10.70;99.90;;;;;;5089219;28;20846;-48
2022/10/19 02:30:38;;;;;;;41.50;22.50;;;10.70;99.90;;;;;;5091243;28;20423;-48
2022/10/19 02:33:04;;;;;;;45.07;23.50;;;10.70;99.90;;;;;;5090459;28;20211;-53
2022/10/19 02:35:30;;;;;;;48.17;21.73;;;10.70;99.90;;;;;;5090397;28;20606;-50
2022/10/19 02:37:59;;;;;;;52.07;22.93;;;10.70;99.90;;;;;;5089606;28;20184;-51
2022/10/19 02:40:26;;;;;;;38.73;22.37;;;10.60;99.90;;;;;;5077917;28;20195;-50
2022/10/19 02:42:56;;;;;;;44.00;23.73;;;10.60;99.90;;;;;;5090068;28;20857;-48
2022/10/19 02:45:29;;;;;;;49.07;24.53;;;10.50;99.90;;;;;;5091066;28;20556;-51
2022/10/19 02:48:10;;;;;;;46.77;24.17;;;10.50;99.90;;;;;;5088257;28;20521;-51
2022/10/19 02:50:36;;;;;;;52.80;23.83;;;10.50;99.90;;;;;;5091092;28;20418;-49
2022/10/19 02:53:02;;;;;;;53.13;25.23;;;10.60;99.90;;;;;;5089359;28;20793;-51
2022/10/19 02:55:29;;;;;;;49.40;23.70;;;10.60;99.90;;;;;;5090289;28;20438;-48
2022/10/19 02:57:56;;;;;;;46.53;23.73;;;10.60;99.90;;;;;;5088620;28;20470;-51
2022/10/19 03:00:21;;;;;;;42.27;23.10;;;10.70;99.90;;;;;;5090664;28;20930;-49
2022/10/19 03:02:47;;;;;;;50.90;24.13;;;10.70;99.90;;;;;;5089685;28;20450;-51
2022/10/19 03:05:12;;;;;;;52.43;24.80;;;10.70;99.90;;;;;;5090626;28;20678;-48
2022/10/19 03:07:38;;;;;;;51.50;23.90;;;10.70;99.90;;;;;;5088472;28;20793;-48
2022/10/19 03:10:04;;;;;;;57.97;25.30;;;10.70;99.90;;;;;;5091166;28;20189;-50
2022/10/19 03:12:30;;;;;;;48.43;24.53;;;10.70;99.90;;;;;;5089144;28;20184;-49
2022/10/19 03:14:55;;;;;;;40.63;22.80;;;10.70;99.90;;;;;;5090446;28;20633;-48
2022/10/19 03:17:21;;;;;;;44.20;23.00;;;10.70;99.90;;;;;;5088848;28;20549;-49
2022/10/19 03:19:46;;;;;;;44.40;24.33;;;10.70;99.90;;;;;;5089228;28;20254;-53
2022/10/19 03:22:13;;;;;;;45.07;22.47;;;10.70;99.90;;;;;;5070044;28;20233;-52
2022/10/19 03:24:39;;;;;;;41.47;22.30;;;10.70;99.90;;;;;;5089802;28;20458;-49
2022/10/19 03:27:05;;;;;;;41.47;22.50;;;10.70;99.90;;;;;;5072006;28;21101;-49
2022/10/19 03:29:30;;;;;;;41.13;21.30;;;10.70;99.90;;;;;;5088820;28;20224;-52
2022/10/19 03:31:56;;;;;;;39.60;22.13;;;10.70;99.90;;;;;;5090208;28;20199;-52
2022/10/19 03:34:21;;;;;;;45.77;22.40;;;10.70;99.90;;;;;;5089267;28;20211;-49
2022/10/19 03:36:47;;;;;;;45.53;24.13;;;10.80;99.90;;;;;;5089850;28;20193;-53
2022/10/19 03:39:15;;;;;;;41.67;22.27;;;10.70;99.90;;;;;;5087217;28;20211;-50
2022/10/19 03:41:41;;;;;;;43.90;22.70;;;10.80;99.90;;;;;;5089992;28;20196;-49
2022/10/19 03:44:08;;;;;;;45.27;23.17;;;10.80;99.90;;;;;;5089828;28;20422;-47
2022/10/19 03:46:35;;;;;;;43.90;23.67;;;10.90;99.90;;;;;;5088661;28;21169;-48
2022/10/19 03:49:00;;;;;;;39.30;23.17;;;10.80;99.90;;;;;;5087423;28;20492;-49
2022/10/19 03:51:28;;;;;;;38.23;21.50;;;10.90;99.90;;;;;;5089170;28;20908;-52
2022/10/19 03:53:56;;;;;;;38.63;23.03;;;10.90;99.90;;;;;;5088673;28;20312;-50
2022/10/19 03:56:23;;;;;;;43.80;22.57;;;11.00;99.90;;;;;;5088360;28;20430;-48
2022/10/19 03:58:50;;;;;;;35.60;20.10;;;11.00;99.90;;;;;;5089108;28;20504;-49
2022/10/19 04:01:28;;;;;;;42.17;21.67;;;11.00;99.90;;;;;;5088097;28;20439;-49
2022/10/19 04:03:55;;;;;;;39.90;20.93;;;10.90;99.90;;;;;;5087855;28;20821;-52
2022/10/19 04:06:25;;;;;;;37.63;19.90;;;11.00;99.90;;;;;;5088686;28;20486;-51
2022/10/19 04:08:50;;;;;;;40.37;21.33;;;11.00;99.90;;;;;;5088591;28;20446;-50
2022/10/19 04:11:19;;;;;;;36.00;20.63;;;11.00;99.90;;;;;;5088129;28;20445;-53
2022/10/19 04:13:48;;;;;;;35.17;19.97;;;11.00;99.90;;;;;;5083514;28;20486;-52
2022/10/19 04:16:13;;;;;;;36.77;20.73;;;11.00;99.90;;;;;;5079926;28;20439;-46
2022/10/19 04:18:39;;;;;;;36.37;21.00;;;11.00;99.90;;;;;;5078713;28;20507;-53
2022/10/19 04:21:05;;;;;;;32.17;19.90;;;11.10;99.90;;;;;;5079232;28;20283;-49
2022/10/19 04:23:34;;;;;;;38.10;20.30;;;11.00;99.90;;;;;;5078753;28;20220;-49
2022/10/19 04:26:05;;;;;;;35.97;20.90;;;11.00;99.90;;;;;;5079305;28;20582;-52
2022/10/19 04:28:31;;;;;;;37.67;21.70;;;11.10;99.90;;;;;;5060713;28;20445;-49
2022/10/19 04:30:56;;;;;;;42.30;21.73;;;11.00;99.90;;;;;;5079162;28;20438;-46
2022/10/19 04:33:22;;;;;;;38.13;20.70;;;11.00;99.90;;;;;;5079556;28;20741;-51
2022/10/19 04:35:48;;;;;;;34.07;20.90;;;11.00;99.90;;;;;;5078657;28;20392;-50
2022/10/19 04:38:13;;;;;;;38.33;20.77;;;11.00;99.90;;;;;;5084809;28;20438;-52
2022/10/19 04:40:39;;;;;;;39.87;21.07;;;11.00;99.90;;;;;;5088820;28;20208;-51
2022/10/19 04:43:05;;;;;;;36.20;20.60;;;10.90;99.90;;;;;;5089049;28;20277;-50
2022/10/19 04:45:33;;;;;;;39.47;20.90;;;10.90;99.90;;;;;;5087815;28;20226;-53
2022/10/19 04:47:59;;;;;;;37.60;21.00;;;10.90;99.90;;;;;;5069876;28;20200;-50
2022/10/19 04:50:25;;;;;;;33.60;20.00;;;10.80;99.90;;;;;;5087949;28;20446;-49
2022/10/19 04:52:51;;;;;;;38.70;23.23;;;10.80;99.90;;;;;;5088837;28;20873;-52
2022/10/19 04:55:16;;;;;;;32.97;20.77;;;10.80;99.90;;;;;;5088538;28;20189;-48
2022/10/19 04:57:42;;;;;;;36.97;20.60;;;10.80;99.90;;;;;;5087787;28;20200;-52
2022/10/19 05:00:09;;;;;;;33.20;19.60;;;10.80;99.90;;;;;;5088279;28;20189;-49
2022/10/19 05:02:34;;;;;;;37.40;21.47;;;10.80;99.90;;;;;;5088566;28;20196;-48
2022/10/19 05:05:00;;;;;;;42.63;20.80;;;10.80;99.90;;;;;;5088567;28;20820;-51
2022/10/19 05:07:25;;;;;;;37.53;21.50;;;10.80;99.90;;;;;;5086950;28;20752;-51
2022/10/19 05:09:51;;;;;;;34.13;20.60;;;10.80;99.90;;;;;;5088345;28;20727;-50
2022/10/19 05:12:16;;;;;;;35.80;21.63;;;10.80;99.90;;;;;;5088892;28;20646;-51
2022/10/19 05:14:42;;;;;;;40.70;21.07;;;10.80;99.90;;;;;;5088850;28;20196;-50
2022/10/19 05:17:08;;;;;;;36.80;22.60;;;10.80;99.90;;;;;;5088819;28;20287;-51
2022/10/19 05:19:33;;;;;;;33.20;21.60;;;10.80;99.90;;;;;;5087386;28;20211;-53
2022/10/19 05:21:59;;;;;;;31.77;20.47;;;10.80;99.90;;;;;;5088723;28;20278;-50
2022/10/19 05:24:24;;;;;;;37.40;22.17;;;10.80;99.90;;;;;;5088523;28;20176;-50
2022/10/19 05:26:50;;;;;;;36.00;20.30;;;10.80;99.90;;;;;;5088403;28;20295;-48
2022/10/19 05:29:15;;;;;;;42.57;21.20;;;10.80;99.90;;;;;;5086339;28;20184;-50
2022/10/19 05:31:41;;;;;;;36.43;22.00;;;10.80;99.90;;;;;;5083566;28;20272;-53
2022/10/19 05:34:07;;;;;;;31.67;20.53;;;10.80;99.90;;;;;;5087889;28;20435;-49
2022/10/19 05:36:35;;;;;;;31.97;20.37;;;10.70;99.90;;;;;;5088242;28;20426;-48
2022/10/19 05:39:15;;;;;;;40.73;21.17;;;10.80;99.90;;;;;;5087246;28;20188;-52
2022/10/19 05:41:45;;;;;;;32.50;19.27;;;10.80;99.90;;;;;;5087816;28;20438;-50
2022/10/19 05:44:29;;;;;;;31.60;19.67;;;10.80;99.90;;;;;;5088138;28;20426;-49
2022/10/19 05:46:54;;;;;;;32.33;20.67;;;10.80;99.90;;;;;;5088431;28;20497;-51
2022/10/19 05:49:21;;;;;;;32.43;20.87;;;10.80;99.90;;;;;;5087268;28;21095;-51
2022/10/19 05:51:47;;;;;;;30.00;19.90;;;10.80;99.90;;;;;;5088226;28;20200;-48
2022/10/19 05:54:13;;;;;;;38.43;20.70;;;10.70;99.90;;;;;;5088025;28;20418;-51
2022/10/19 05:56:40;;;;;;;28.80;19.83;;;10.80;99.90;;;;;;5088226;28;20944;-49
2022/10/19 05:59:09;;;;;;;37.83;21.50;;;10.80;99.90;;;;;;5087369;28;20431;-49
2022/10/19 06:01:35;;;;;;;34.60;21.63;;;10.80;99.90;;;;;;5088756;28;20766;-49
2022/10/19 06:04:02;;;;;;;32.93;19.60;;;10.80;99.90;;;;;;5088652;28;20423;-48
2022/10/19 06:06:27;;;;;;;32.43;20.50;;;10.80;99.90;;;;;;5087626;28;20536;-49
2022/10/19 06:08:54;;;;;;;34.30;21.13;;;10.80;99.90;;;;;;5086864;28;20928;-48
2022/10/19 06:11:29;;;;;;;32.10;19.63;;;10.80;99.90;;;;;;5088386;28;20188;-54
2022/10/19 06:13:56;;;;;;;30.23;20.50;;;10.80;99.90;;;;;;5087830;28;20453;-49
2022/10/19 06:16:24;;;;;;;31.97;19.63;;;10.90;99.90;;;;;;5088016;28;20418;-52
2022/10/19 06:18:50;;;;;;;26.50;18.60;;;10.90;99.90;;;;;;5088236;28;20804;-51
2022/10/19 06:21:18;;;;;;;35.27;20.07;;;10.90;99.90;;;;;;5091034;28;20428;-50
2022/10/19 06:23:44;;;;;;;27.57;19.20;;;11.00;99.90;;;;;;5091724;28;20426;-51
2022/10/19 06:26:12;;;;;;;27.13;18.83;;;11.00;99.90;;;;;;5091627;28;20940;-53
2022/10/19 06:28:40;;;;;;;31.77;18.70;;;11.00;99.90;;;;;;5090690;28;20199;-49
2022/10/19 06:31:06;;;;;;;26.37;18.20;;;11.00;99.90;;;;;;5091411;28;20882;-49
2022/10/19 06:33:31;;;;;;;31.10;18.57;;;11.00;99.90;;;;;;5091453;28;20838;-51
2022/10/19 06:36:11;;;;;;;32.77;18.33;;;11.00;99.90;;;;;;5091129;28;20552;-49
2022/10/19 06:38:37;;;;;;;26.57;18.23;;;11.00;99.90;;;;;;5090390;28;20441;-50
2022/10/19 06:41:03;;;;;;;24.77;17.50;;;10.90;99.90;;;;;;5088223;28;20858;-53
2022/10/19 06:43:29;;;;;;;29.33;16.03;;;10.90;99.90;;;;;;5091502;28;20204;-53
2022/10/19 06:45:55;;;;;;;24.87;17.27;;;10.90;99.90;;;;;;5091144;28;20952;-48
2022/10/19 06:48:20;;;;;;;26.97;17.87;;;11.00;99.90;;;;;;5091135;28;20570;-50
2022/10/19 06:50:54;;;;;;;25.83;17.87;;;11.00;99.90;;;;;;5089994;28;20196;-51
2022/10/19 06:53:19;;;;;;;24.40;17.27;;;11.00;99.90;;;;;;5090896;28;20256;-50
2022/10/19 06:55:45;;;;;;;23.83;17.97;;;11.10;99.90;;;;;;5063077;28;20420;-50
2022/10/19 06:58:10;;;;;;;27.57;19.60;;;11.10;99.90;;;;;;5090986;28;20203;-51
2022/10/19 07:00:36;;;;;;;26.73;19.50;;;11.20;99.90;;;;;;5089585;28;20192;-49
2022/10/19 07:03:01;;;;;;;26.80;18.70;;;11.30;99.90;;;;;;5072565;28;20226;-49
2022/10/19 07:05:27;;;;;;;28.43;18.77;;;11.40;99.90;;;;;;5090746;28;20227;-50
2022/10/19 07:07:52;;;;;;;31.93;19.67;;;11.50;99.90;;;;;;5090824;28;20551;-50
2022/10/19 07:10:18;;;;;;;23.93;17.80;;;11.60;99.90;;;;;;5090070;28;20722;-54
2022/10/19 07:12:44;;;;;;;26.63;17.60;;;11.80;99.90;;;;;;5090747;28;20187;-51
2022/10/19 07:15:09;;;;;;;22.83;18.47;;;11.80;99.90;;;;;;5090748;28;20193;-47
2022/10/19 07:17:35;;;;;;;22.67;17.07;;;11.90;99.90;;;;;;5090526;28;20192;-48
2022/10/19 07:20:00;;;;;;;22.20;15.87;;;12.00;99.90;;;;;;5089878;28;20320;-47
2022/10/19 07:22:26;;;;;;;21.63;15.73;;;12.10;99.90;;;;;;5091017;28;20367;-50
2022/10/19 07:24:52;;;;;;;23.13;13.93;;;12.10;99.90;;;;;;5090346;28;20194;-49
2022/10/19 07:27:17;;;;;;;18.93;12.10;;;12.20;99.90;;;;;;5090397;28;20273;-51
2022/10/19 07:29:43;;;;;;;15.00;10.23;;;12.20;99.90;;;;;;5079220;28;20181;-49
2022/10/19 07:32:09;;;;;;;15.17;9.33;;;12.10;99.90;;;;;;5088135;28;20272;-51
2022/10/19 07:34:34;;;;;;;12.57;9.17;;;12.10;99.90;;;;;;5090159;28;20722;-50
2022/10/19 07:37:00;;;;;;;16.23;9.40;;;12.20;99.90;;;;;;5090022;28;20198;-53
2022/10/19 07:39:26;;;;;;;12.80;8.70;;;12.10;99.90;;;;;;5088676;28;20283;-49
2022/10/19 07:41:52;;;;;;;11.47;8.33;;;12.10;99.90;;;;;;5090116;28;20189;-48
2022/10/19 07:44:17;;;;;;;13.90;7.73;;;12.10;99.90;;;;;;5089347;28;20451;-51
2022/10/19 07:46:43;;;;;;;9.27;7.13;;;12.10;99.90;;;;;;5089982;28;20403;-52
2022/10/19 07:49:12;;;;;;;10.70;7.53;;;12.20;99.90;;;;;;5089057;28;20177;-49
2022/10/19 07:51:39;;;;;;;13.90;7.23;;;12.20;99.90;;;;;;5089958;28;20670;-51
2022/10/19 07:54:05;;;;;;;7.83;6.40;;;12.30;99.90;;;;;;5089597;28;20514;-53
2022/10/19 07:56:31;;;;;;;11.90;6.40;;;12.30;99.90;;;;;;5089771;28;20518;-45
2022/10/19 07:58:58;;;;;;;12.20;7.17;;;12.30;99.90;;;;;;5070737;28;20462;-48
2022/10/19 08:01:37;;;;;;;7.63;5.80;;;12.30;99.90;;;;;;5071335;28;20435;-55
2022/10/19 08:04:03;;;;;;;11.70;7.37;;;12.40;99.90;;;;;;5089108;28;20562;-51
2022/10/19 08:06:28;;;;;;;9.90;6.00;;;12.40;99.90;;;;;;5089390;28;20574;-52
2022/10/19 08:08:54;;;;;;;8.70;5.93;;;12.40;99.90;;;;;;5089167;28;20523;-52
2022/10/19 08:11:26;;;;;;;8.73;5.97;;;12.40;99.90;;;;;;5087440;28;20190;-53
2022/10/19 08:13:52;;;;;;;10.97;6.03;;;12.40;99.90;;;;;;5089345;28;20494;-49
2022/10/19 08:16:39;;;;;;;11.00;5.77;;;12.40;99.90;;;;;;5089350;28;20418;-44
2022/10/19 08:19:08;;;;;;;8.63;5.90;;;12.50;99.90;;;;;;5089495;28;20411;-44
2022/10/19 08:21:34;;;;;;;7.37;5.63;;;12.50;99.90;;;;;;5088423;28;20439;-46
2022/10/19 08:24:00;;;;;;;10.00;5.90;;;12.50;99.90;;;;;;5089269;28;20931;-45
2022/10/19 08:26:30;;;;;;;8.00;5.53;;;12.40;99.90;;;;;;5088982;28;20463;-44
2022/10/19 08:29:00;;;;;;;8.50;6.00;;;12.40;99.90;;;;;;5089562;28;20269;-44
2022/10/19 08:31:27;;;;;;;7.13;5.13;;;12.50;99.90;;;;;;5088426;28;21053;-48
2022/10/19 08:33:52;;;;;;;6.43;5.13;;;12.50;99.90;;;;;;5081142;28;20493;-44
2022/10/19 08:36:18;;;;;;;9.77;5.80;;;12.60;99.90;;;;;;5089055;28;20428;-45
2022/10/19 08:38:47;;;;;;;8.10;5.30;;;12.60;99.90;;;;;;5089361;28;20189;-50
2022/10/19 08:41:36;;;;;;;8.30;6.00;;;12.60;99.90;;;;;;5088111;28;20445;-49
2022/10/19 08:44:43;;;;;;;7.27;5.40;;;12.60;99.90;;;;;;5088323;28;20919;-47
2022/10/19 08:47:15;;;;;;;9.17;5.17;;;12.80;99.90;;;;;;4980629;28;21199;-46
2022/10/19 08:49:41;;;;;;;6.43;4.77;;;12.80;99.90;;;;;;4986966;28;20516;-44
2022/10/19 08:52:21;;;;;;;7.10;5.57;;;12.90;99.90;;;;;;5039798;28;20886;-47
2022/10/19 08:55:01;;;;;;;7.47;6.00;;;12.90;99.90;;;;;;5084489;28;20562;-44
2022/10/19 08:58:05;;;;;;;8.80;5.77;;;12.90;99.90;;;;;;5088680;28;20411;-48
2022/10/19 09:00:38;;;;;;;6.10;5.50;;;13.00;99.90;;;;;;5066859;28;20440;-44
2022/10/19 09:03:21;;;;;;;9.60;5.70;;;13.10;99.90;;;;;;5087658;28;21085;-45
2022/10/19 09:05:58;;;;;;;9.90;6.20;;;13.30;99.90;;;;;;5088318;28;20477;-43
2022/10/19 09:08:24;;;;;;;6.90;5.33;;;13.40;99.90;;;;;;5088586;28;20428;-44
2022/10/19 09:10:53;;;;;;;8.27;5.30;;;13.30;99.90;;;;;;5088529;28;20419;-48
2022/10/19 09:13:45;;;;;;;7.03;5.00;;;13.40;99.90;;;;;;5087715;28;20452;-44
2022/10/19 09:16:13;;;;;;;7.47;4.60;;;13.40;99.90;;;;;;5088834;28;20436;-46
2022/10/19 09:18:40;;;;;;;7.73;4.77;;;13.50;99.90;;;;;;5088614;28;20418;-47
2022/10/19 09:21:14;;;;;;;5.50;4.37;;;13.60;99.90;;;;;;5088780;28;20484;-46
2022/10/19 09:23:49;;;;;;;6.87;4.43;;;13.40;99.90;;;;;;5087675;28;20438;-48
2022/10/19 09:26:17;;;;;;;5.97;4.30;;;13.50;99.90;;;;;;5088202;28;20521;-47
2022/10/19 09:28:46;;;;;;;8.60;5.30;;;13.40;99.90;;;;;;5088399;28;20445;-49
2022/10/19 09:31:30;;;;;;;7.40;4.70;;;13.40;99.90;;;;;;5088037;28;20433;-46
2022/10/19 09:34:01;;;;;;;6.70;4.63;;;13.50;99.90;;;;;;5087701;28;20443;-45
2022/10/19 09:36:39;;;;;;;4.50;3.70;;;13.60;99.90;;;;;;5088469;28;20795;-45
2022/10/19 09:39:05;;;;;;;4.10;3.47;;;13.60;99.90;;;;;;5088673;28;20777;-46
2022/10/19 09:41:32;;;;;;;5.90;3.57;;;13.80;99.90;;;;;;5087967;28;20423;-49
2022/10/19 09:43:58;;;;;;;4.83;3.90;;;13.90;99.90;;;;;;5087292;28;20644;-45
2022/10/19 09:46:24;;;;;;;4.57;3.17;;;14.20;99.90;;;;;;5088018;28;20499;-49
2022/10/19 09:48:51;;;;;;;5.17;3.10;;;14.40;99.90;;;;;;5088336;28;20904;-47
2022/10/19 09:51:18;;;;;;;3.87;2.80;;;14.50;99.90;;;;;;5069281;28;20291;-47
2022/10/19 09:53:46;;;;;;;4.77;3.10;;;14.50;99.90;;;;;;5089134;28;20459;-46
2022/10/19 09:56:26;;;;;;;6.80;3.27;;;14.50;99.90;;;;;;5091927;28;20420;-49
2022/10/19 09:58:56;;;;;;;6.77;3.70;;;14.30;99.90;;;;;;5092085;28;20509;-48
2022/10/19 10:01:31;;;;;;;5.80;3.43;;;14.20;99.90;;;;;;5091049;28;20697;-45
2022/10/19 10:04:13;;;;;;;3.80;2.90;;;14.20;99.90;;;;;;5091184;28;20434;-49
2022/10/19 10:06:39;;;;;;;5.10;3.30;;;14.20;99.90;;;;;;5091667;28;20517;-45
2022/10/19 10:09:06;;;;;;;4.43;3.33;;;14.10;99.90;;;;;;5091566;28;20422;-48
2022/10/19 10:11:38;;;;;;;3.60;3.30;;;14.10;99.90;;;;;;5090924;28;20451;-47
2022/10/19 10:14:18;;;;;;;4.90;4.00;;;14.10;99.90;;;;;;5078965;28;20414;-48
2022/10/19 10:16:44;;;;;;;5.07;4.60;;;14.10;99.90;;;;;;5091510;28;20764;-46
2022/10/19 10:19:15;;;;;;;4.50;4.00;;;13.90;99.90;;;;;;5073409;28;20430;-47
2022/10/19 10:21:49;;;;;;;4.37;3.97;;;13.80;99.90;;;;;;5090769;28;20947;-50
2022/10/19 10:24:19;;;;;;;3.60;3.30;;;13.70;99.90;;;;;;5091730;28;21047;-44
2022/10/19 10:26:47;;;;;;;4.70;3.50;;;13.70;99.90;;;;;;5072977;28;20944;-44
2022/10/19 10:29:37;;;;;;;4.20;3.50;;;13.80;99.90;;;;;;5091480;28;20922;-46
2022/10/19 10:32:13;;;;;;;4.10;3.30;;;13.80;99.90;;;;;;5062722;28;20466;-47
2022/10/19 10:34:44;;;;;;;5.77;2.93;;;13.80;99.90;;;;;;5091375;28;20755;-45
2022/10/19 10:37:28;;;;;;;5.13;3.30;;;13.80;99.90;;;;;;5091286;28;20425;-47
2022/10/19 10:39:56;;;;;;;5.00;3.07;;;13.70;99.90;;;;;;5091143;28;20414;-44
2022/10/19 10:42:41;;;;;;;2.90;2.70;;;13.70;99.90;;;;;;5085566;28;20800;-48
2022/10/19 10:45:32;;;;;;;3.10;2.90;;;13.80;99.90;;;;;;5091658;28;20899;-46
2022/10/19 10:48:05;;;;;;;6.60;3.27;;;13.90;99.90;;;;;;5091016;28;20427;-47
2022/10/19 10:50:33;;;;;;;3.70;3.10;;;13.90;99.90;;;;;;5090255;28;20553;-45
2022/10/19 10:53:05;;;;;;;4.50;3.23;;;14.00;99.90;;;;;;5090388;28;20442;-45
2022/10/19 10:55:31;;;;;;;3.50;2.90;;;14.00;99.90;;;;;;5091038;28;20429;-46
2022/10/19 10:58:30;;;;;;;3.87;3.07;;;13.90;99.90;;;;;;5090909;28;20935;-46
2022/10/19 11:00:58;;;;;;;2.90;2.70;;;13.80;99.90;;;;;;5090048;28;20793;-45
2022/10/19 11:03:28;;;;;;;2.83;2.63;;;13.80;99.90;;;;;;5090721;28;20431;-43
2022/10/19 11:06:04;;;;;;;3.17;2.90;;;13.80;99.90;;;;;;5070897;28;20983;-45
2022/10/19 11:09:06;;;;;;;3.43;3.13;;;13.80;99.90;;;;;;5090755;28;20426;-43
2022/10/19 11:11:35;;;;;;;3.10;2.90;;;13.70;99.90;;;;;;5089998;28;20480;-44
2022/10/19 11:14:35;;;;;;;3.80;3.00;;;13.80;99.90;;;;;;5090606;28;20449;-44
2022/10/19 11:17:10;;;;;;;3.30;3.10;;;13.70;99.90;;;;;;5090530;28;20836;-44
2022/10/19 11:19:41;;;;;;;4.13;3.80;;;13.90;99.90;;;;;;5090633;28;20501;-46
2022/10/19 11:22:30;;;;;;;3.83;3.27;;;14.00;99.90;;;;;;5089947;28;20448;-44
2022/10/19 11:25:14;;;;;;;3.67;3.20;;;14.10;99.90;;;;;;5090354;28;20928;-44
2022/10/19 11:28:22;;;;;;;4.93;3.23;;;14.30;99.90;;;;;;5090806;28;20492;-46
2022/10/19 11:31:09;;;;;;;3.53;3.23;;;14.40;99.90;;;;;;5089269;28;20979;-48
2022/10/19 11:34:06;;;;;;;3.83;3.20;;;14.50;99.90;;;;;;5077301;28;20424;-46
2022/10/19 11:36:53;;;;;;;4.10;3.20;;;14.50;99.90;;;;;;5090460;28;20451;-52
2022/10/19 11:39:46;;;;;;;3.23;3.00;;;14.30;99.90;;;;;;5090129;28;20465;-45
2022/10/19 11:42:43;;;;;;;3.93;3.10;;;14.00;99.90;;;;;;5089025;28;20530;-46
2022/10/19 11:45:40;;;;;;;2.80;2.60;;;13.90;99.90;;;;;;5090541;28;20517;-43
2022/10/19 11:48:21;;;;;;;3.07;2.70;;;13.90;99.90;;;;;;5090239;28;20545;-47
2022/10/19 11:50:55;;;;;;;3.77;3.47;;;13.90;99.90;;;;;;5088776;28;20786;-46
2022/10/19 11:53:47;;;;;;;2.70;2.33;;;13.80;99.90;;;;;;5090357;28;20430;-47
2022/10/19 11:56:27;;;;;;;2.87;2.67;;;13.70;99.90;;;;;;5088518;28;20435;-45
2022/10/19 11:59:21;;;;;;;3.80;2.77;;;13.70;99.90;;;;;;5089779;28;20425;-49
2022/10/19 12:02:05;;;;;;;2.63;2.43;;;13.80;99.90;;;;;;5066862;28;20455;-46
2022/10/19 12:04:33;;;;;;;2.90;2.70;;;13.80;99.90;;;;;;5078234;28;20429;-45
2022/10/19 12:07:10;;;;;;;3.00;2.70;;;13.80;99.90;;;;;;5089386;28;20484;-44
2022/10/19 12:09:45;;;;;;;3.00;2.80;;;13.90;99.90;;;;;;5089592;28;20460;-44
2022/10/19 12:12:16;;;;;;;3.10;2.80;;;14.00;99.90;;;;;;5085822;28;20532;-47
2022/10/19 12:14:46;;;;;;;2.67;2.47;;;14.00;99.90;;;;;;5081690;28;20422;-48
2022/10/19 12:17:19;;;;;;;4.50;2.60;;;14.10;99.90;;;;;;5087488;28;20447;-44
2022/10/19 12:19:51;;;;;;;3.30;2.60;;;14.10;98.70;;;;;;5088423;28;20450;-46
2022/10/19 12:22:22;;;;;;;2.83;2.50;;;14.20;99.40;;;;;;5089487;28;20414;-47
2022/10/19 12:24:49;;;;;;;2.83;2.63;;;14.20;98.00;;;;;;5089201;28;20410;-48
2022/10/19 12:27:27;;;;;;;3.40;3.10;;;14.20;98.20;;;;;;5089278;28;20467;-46
2022/10/19 12:29:53;;;;;;;3.23;2.73;;;14.30;97.80;;;;;;5088120;28;20442;-51
2022/10/19 12:32:22;;;;;;;3.13;2.80;;;14.40;98.10;;;;;;5089127;28;20427;-50
2022/10/19 12:34:58;;;;;;;3.00;2.80;;;14.40;97.70;;;;;;5088972;28;20824;-45
2022/10/19 12:37:46;;;;;;;3.67;2.70;;;14.50;98.00;;;;;;5089174;28;20414;-51
2022/10/19 12:40:48;;;;;;;3.03;2.83;;;14.60;96.70;;;;;;5088153;28;20440;-47
2022/10/19 12:43:43;;;;;;;3.80;2.90;;;14.60;96.00;;;;;;5089058;28;20720;-51
2022/10/19 12:46:21;;;;;;;3.03;2.83;;;14.40;98.00;;;;;;5088811;28;20462;-47
2022/10/19 12:49:25;;;;;;;3.30;3.10;;;14.30;96.60;;;;;;5087612;28;20426;-46
2022/10/19 12:51:52;;;;;;;2.90;2.70;;;14.40;97.20;;;;;;5089022;28;20450;-45
2022/10/19 12:54:22;;;;;;;3.27;3.07;;;14.50;96.20;;;;;;5088761;28;20438;-47
2022/10/19 12:56:51;;;;;;;3.10;2.90;;;14.50;96.30;;;;;;5088894;28;20430;-45
2022/10/19 12:59:33;;;;;;;3.20;2.90;;;14.60;95.50;;;;;;5088099;28;20479;-45